Terminal Aerodrome Forecast
Issued by NWS

Home | Current Version | Previous Version | Text Only | Print | Product List | Glossary On
Versions: 1 2 3 4 5 6 7 8 9 10 11 12 13 14 15 16
000
FTUS45 KSLC 260101 AAA
TAFSGU
TAF AMD
KSGU 260101Z 2601/2624 29010KT P6SM SCT090
     FM260400 VRB04KT P6SM SCT080 BKN120
     FM261500 24007KT P6SM SCT050 BKN100
     FM262000 25012KT P6SM SCT070 BKN150
      AMD LTD TO CLD VIS AND WIND=

USA.gov is the U.S. government's official web portal to all federal, state and local government web resources and services.